createdAt,value
2022-09-05T00:00:23.053Z,99560.56
2022-09-05T00:03:03.691Z,99564.44
2022-09-05T00:05:50.983Z,99555.81
2022-09-05T00:08:40.727Z,99563.16
2022-09-05T00:11:40.415Z,99563.78
2022-09-05T00:15:14.348Z,99555.97
2022-09-05T00:17:18.406Z,99579.25
2022-09-05T00:24:27.420Z,99570.78
2022-09-05T00:24:29.816Z,99562.38
2022-09-05T00:25:53.833Z,99563.78
2022-09-05T00:28:29.758Z,99563.19
2022-09-05T00:31:53.405Z,99551.09
2022-09-05T00:34:26.980Z,99555.88
2022-09-05T00:37:14.354Z,99559.34
2022-09-05T00:39:48.554Z,99558.75
2022-09-05T00:42:32.956Z,99561.22
2022-09-05T00:45:05.322Z,99569.13
2022-09-05T00:47:49.798Z,99576.75
2022-09-05T00:50:22.904Z,99574.00
2022-09-05T00:53:07.403Z,99578.72
2022-09-05T00:55:42.940Z,99567.16
2022-09-05T00:58:38.208Z,99571.19
2022-09-05T01:01:21.721Z,99579.16
2022-09-05T01:04:27.500Z,99581.97
2022-09-05T01:07:16.453Z,99578.94
2022-09-05T01:09:51.853Z,99579.84
2022-09-05T01:12:50.349Z,99581.00
2022-09-05T01:15:32.220Z,99582.22
2022-09-05T01:18:40.267Z,99581.97
2022-09-05T01:21:38.154Z,99581.19
2022-09-05T01:24:28.039Z,99585.81
2022-09-05T01:27:56.252Z,99588.84
2022-09-05T01:30:36.419Z,99590.41
2022-09-05T01:33:16.574Z,99587.72
2022-09-05T01:36:25.326Z,99584.09
2022-09-05T01:40:10.494Z,99580.03
2022-09-05T01:41:59.055Z,99578.81
2022-09-05T01:44:51.840Z,99579.38
2022-09-05T01:47:30.822Z,99577.97
2022-09-05T01:50:08.489Z,99580.78
2022-09-05T01:53:00.641Z,99577.22
2022-09-05T01:56:05.576Z,99572.38
2022-09-05T01:58:49.056Z,99564.50
2022-09-05T02:01:32.433Z,99567.53
2022-09-05T02:04:23.873Z,99563.88
2022-09-05T02:07:20.105Z,99563.00
2022-09-05T02:10:13.535Z,99563.66
2022-09-05T02:12:56.826Z,99556.91
2022-09-05T02:15:42.884Z,99565.59
2022-09-05T02:18:23.118Z,99567.19
2022-09-05T02:20:58.017Z,99560.88
2022-09-05T02:23:40.915Z,99570.31
2022-09-05T02:26:18.601Z,99567.50
2022-09-05T02:28:53.773Z,99565.06
2022-09-05T02:31:28.383Z,99555.44
2022-09-05T02:34:02.988Z,99561.59
2022-09-05T02:36:41.444Z,99566.09
2022-09-05T02:45:00.324Z,99569.31
2022-09-05T02:45:12.661Z,99561.28
2022-09-05T02:45:25.355Z,99557.56
2022-09-05T02:48:14.952Z,99559.72
2022-09-05T02:57:23.172Z,99560.41
2022-09-05T02:57:32.960Z,99556.72
2022-09-05T02:57:41.944Z,99558.78
2022-09-05T02:59:51.083Z,99544.56
2022-09-05T03:02:27.561Z,99540.22
2022-09-05T03:05:04.502Z,99536.88
2022-09-05T03:07:51.540Z,99528.38
2022-09-05T03:10:54.439Z,99529.13
2022-09-05T03:14:00.993Z,99537.50
2022-09-05T03:16:58.348Z,99530.94
2022-09-05T03:19:46.995Z,99525.91
2022-09-05T03:22:53.157Z,99528.78
2022-09-05T03:26:13.401Z,99531.69
2022-09-05T03:29:17.309Z,99529.91
2022-09-05T03:32:03.396Z,99528.13
2022-09-05T03:34:54.582Z,99531.84
2022-09-05T03:38:01.909Z,99524.91
2022-09-05T03:40:51.177Z,99530.72
2022-09-05T03:44:03.595Z,99520.97
2022-09-05T03:47:03.892Z,99526.66
2022-09-05T03:55:05.916Z,99533.06
2022-09-05T03:57:13.650Z,99537.13
2022-09-05T03:57:22.452Z,99523.34
2022-09-05T03:59:25.961Z,99532.66
2022-09-05T04:04:10.875Z,99539.88
2022-09-05T04:08:14.567Z,99543.19
2022-09-05T04:08:17.421Z,99554.66
2022-09-05T04:10:53.882Z,99554.25
2022-09-05T04:13:29.604Z,99549.69
2022-09-05T04:16:15.135Z,99548.09
2022-09-05T04:18:48.983Z,99543.00
2022-09-05T04:21:22.487Z,99544.50
2022-09-05T04:24:02.613Z,99559.50
2022-09-05T04:26:58.005Z,99556.25
2022-09-05T04:29:40.945Z,99554.16
2022-09-05T04:32:19.703Z,99559.69
2022-09-05T04:35:02.722Z,99551.97
2022-09-05T04:37:48.995Z,99555.47
2022-09-05T04:40:38.369Z,99561.50
2022-09-05T04:43:09.051Z,99564.69
2022-09-05T04:45:43.971Z,99561.34
2022-09-05T04:48:15.910Z,99569.03
2022-09-05T04:51:06.894Z,99570.81
2022-09-05T04:53:55.385Z,99576.16
2022-09-05T04:56:28.847Z,99568.94
2022-09-05T05:01:01.707Z,99582.06
2022-09-05T05:06:05.461Z,99583.41
2022-09-05T05:06:20.305Z,99592.47
2022-09-05T05:07:41.587Z,99596.41
2022-09-05T05:11:22.907Z,99594.22
2022-09-05T05:17:59.869Z,99599.19
2022-09-05T05:18:09.962Z,99600.72
2022-09-05T05:19:05.116Z,99597.91
2022-09-05T05:21:37.707Z,99604.22
2022-09-05T05:24:16.488Z,99603.19
2022-09-05T05:26:56.969Z,99605.94
2022-09-05T05:29:32.837Z,99610.69
2022-09-05T05:32:06.852Z,99603.53
2022-09-05T05:34:43.259Z,99614.75
2022-09-05T05:37:22.223Z,99612.47
2022-09-05T05:39:59.867Z,99605.59
2022-09-05T05:42:28.107Z,99606.25
2022-09-05T05:44:59.313Z,99618.88
2022-09-05T05:47:32.232Z,99616.66
2022-09-05T05:50:11.393Z,99615.25
2022-09-05T05:53:36.327Z,99608.47
2022-09-05T05:56:41.838Z,99611.00
2022-09-05T05:59:25.279Z,99621.38
2022-09-05T06:02:21.884Z,99626.53
2022-09-05T06:05:16.281Z,99621.09
2022-09-05T06:09:12.738Z,99626.50
2022-09-05T06:14:59.173Z,99628.75
2022-09-05T06:15:06.149Z,99624.91
2022-09-05T06:17:54.693Z,99630.03
2022-09-05T06:22:10.259Z,99633.28
2022-09-05T06:24:31.510Z,99628.09
2022-09-05T06:27:23.208Z,99651.09
2022-09-05T06:30:00.559Z,99643.59
2022-09-05T06:32:50.178Z,99640.72
2022-09-05T06:35:33.467Z,99645.94
2022-09-05T06:38:19.589Z,99644.50
2022-09-05T06:40:58.018Z,99637.19
2022-09-05T06:43:37.876Z,99647.38
2022-09-05T06:46:54.916Z,99648.00
2022-09-05T06:49:30.251Z,99648.81
2022-09-05T06:52:44.430Z,99634.88
2022-09-05T06:55:54.688Z,99631.50
2022-09-05T06:58:52.333Z,99640.31
2022-09-05T07:01:59.477Z,99637.53
2022-09-05T07:05:23.702Z,99643.41
2022-09-05T07:07:27.876Z,99642.59
2022-09-05T07:10:16.758Z,99645.03
2022-09-05T07:12:58.081Z,99642.09
2022-09-05T07:15:38.241Z,99637.38
2022-09-05T07:18:17.473Z,99640.69
2022-09-05T07:21:17.792Z,99644.59
2022-09-05T07:24:06.450Z,99649.13
2022-09-05T07:26:52.058Z,99650.91
2022-09-05T07:29:53.262Z,99649.88
2022-09-05T07:32:32.305Z,99647.63
2022-09-05T07:35:13.150Z,99644.94
2022-09-05T07:37:44.891Z,99654.66
2022-09-05T07:40:25.127Z,99652.47
2022-09-05T07:43:09.925Z,99651.47
2022-09-05T07:45:55.657Z,99651.16
2022-09-05T07:48:35.158Z,99645.28
2022-09-05T07:56:43.934Z,99651.31
2022-09-05T07:57:05.034Z,99646.97
2022-09-05T07:58:58.891Z,99650.19
2022-09-05T08:02:06.454Z,99649.44
2022-09-05T08:04:58.757Z,99651.00
2022-09-05T08:08:22.981Z,99652.66
2022-09-05T08:11:52.620Z,99649.25
2022-09-05T08:15:26.055Z,99643.34
2022-09-05T08:18:18.758Z,99648.16
2022-09-05T08:21:36.692Z,99639.13
2022-09-05T08:25:05.715Z,99639.63
2022-09-05T08:28:03.025Z,99630.91
2022-09-05T08:30:42.799Z,99641.06
2022-09-05T08:33:21.647Z,99634.94
2022-09-05T08:36:00.723Z,99635.72
2022-09-05T08:38:40.879Z,99630.50
2022-09-05T08:41:18.783Z,99634.13
2022-09-05T08:46:37.791Z,99625.88
2022-09-05T08:46:57.588Z,99630.31
2022-09-05T08:49:47.993Z,99635.16
2022-09-05T08:52:29.670Z,99634.94
2022-09-05T08:55:12.252Z,99625.22
2022-09-05T08:58:00.461Z,99627.22
2022-09-05T09:00:36.003Z,99613.16
2022-09-05T09:03:13.894Z,99618.03
2022-09-05T09:06:21.064Z,99613.78
2022-09-05T09:09:06.149Z,99621.34
2022-09-05T09:11:45.532Z,99616.47
2022-09-05T09:14:40.245Z,99600.94
2022-09-05T09:17:27.915Z,99598.19
2022-09-05T09:20:16.694Z,99596.22
2022-09-05T09:22:55.950Z,99594.53
2022-09-05T09:25:31.865Z,99584.94
2022-09-05T09:28:47.818Z,99586.25
2022-09-05T09:31:39.633Z,99587.63
2022-09-05T09:34:22.992Z,99590.66
2022-09-05T09:37:49.543Z,99582.97
2022-09-05T09:40:30.788Z,99583.53
2022-09-05T09:43:07.221Z,99578.66
2022-09-05T09:46:05.525Z,99575.13
2022-09-05T09:48:54.968Z,99577.75
2022-09-05T09:51:38.416Z,99573.06
2022-09-05T09:54:21.223Z,99574.56
2022-09-05T09:57:20.741Z,99568.91
2022-09-05T10:00:15.723Z,99570.44
2022-09-05T10:06:49.570Z,99566.78
2022-09-05T10:10:55.284Z,99563.81
2022-09-05T10:11:00.444Z,99572.19
2022-09-05T10:13:16.355Z,99565.00
2022-09-05T10:16:07.494Z,99563.56
2022-09-05T10:18:57.217Z,99558.69
2022-09-05T10:25:24.607Z,99535.44
2022-09-05T10:28:06.189Z,99550.72
2022-09-05T10:31:52.777Z,99530.25
2022-09-05T10:35:13.679Z,99525.50
2022-09-05T10:36:34.434Z,99529.72
2022-09-05T10:39:16.115Z,99518.38
2022-09-05T10:41:51.122Z,99521.94
2022-09-05T10:44:32.035Z,99512.56
2022-09-05T10:47:10.784Z,99512.72
2022-09-05T10:49:48.152Z,99511.81
2022-09-05T11:05:07.052Z,99497.03
2022-09-05T11:07:41.691Z,99499.75
2022-09-05T11:10:15.922Z,99495.84
2022-09-05T11:13:04.749Z,99494.50
2022-09-05T11:15:45.831Z,99484.50
2022-09-05T11:18:55.391Z,99488.84
2022-09-05T11:21:37.837Z,99490.06
2022-09-05T11:24:12.338Z,99483.66
2022-09-05T11:26:46.736Z,99483.13
2022-09-05T11:29:25.329Z,99477.41
2022-09-05T11:36:20.256Z,99475.88
2022-09-05T11:39:58.554Z,99474.41
2022-09-05T11:40:00.459Z,99481.28
2022-09-05T11:41:51.889Z,99478.28
2022-09-05T11:44:35.917Z,99477.50
2022-09-05T11:47:30.102Z,99468.25
2022-09-05T11:50:25.768Z,99471.97
2022-09-05T11:53:27.730Z,99468.78
2022-09-05T11:56:28.062Z,99465.38
2022-09-05T11:59:33.631Z,99472.22
2022-09-05T12:02:27.301Z,99468.78
2022-09-05T12:05:48.856Z,99475.56
2022-09-05T12:08:08.715Z,99474.59
2022-09-05T12:10:51.519Z,99461.25
2022-09-05T12:13:34.016Z,99466.19
2022-09-05T12:16:07.649Z,99449.22
2022-09-05T12:19:19.718Z,99460.41
2022-09-05T12:22:16.102Z,99444.88
2022-09-05T12:25:24.023Z,99453.34
2022-09-05T12:28:00.033Z,99432.06
2022-09-05T12:31:00.466Z,99439.44
2022-09-05T12:36:04.556Z,99432.31
2022-09-05T12:40:38.425Z,99436.41
2022-09-05T12:41:34.466Z,99438.09
2022-09-05T12:42:30.524Z,99434.25
2022-09-05T12:45:13.885Z,99428.88
2022-09-05T12:47:56.766Z,99425.69
2022-09-05T12:50:34.286Z,99426.91
2022-09-05T12:53:08.987Z,99419.41
2022-09-05T12:55:41.622Z,99424.00
2022-09-05T13:02:58.786Z,99416.50
2022-09-05T13:03:14.367Z,99409.75
2022-09-05T13:04:26.584Z,99401.44
2022-09-05T13:07:02.387Z,99395.06
2022-09-05T13:09:58.294Z,99400.91
2022-09-05T13:14:56.583Z,99396.06
2022-09-05T13:15:26.945Z,99403.81
2022-09-05T13:18:03.846Z,99403.19
2022-09-05T13:20:36.462Z,99398.81
2022-09-05T13:23:20.484Z,99395.56
2022-09-05T13:25:58.417Z,99385.63
2022-09-05T13:28:30.331Z,99389.53
2022-09-05T13:37:53.838Z,99383.03
2022-09-05T13:38:00.006Z,99379.16
2022-09-05T13:38:02.437Z,99378.69
2022-09-05T13:39:49.836Z,99370.88
2022-09-05T13:42:21.638Z,99386.03
2022-09-05T13:44:53.901Z,99367.16
2022-09-05T13:47:36.651Z,99372.75
2022-09-05T13:50:19.946Z,99366.38
2022-09-05T13:52:55.509Z,99374.47
2022-09-05T13:55:30.603Z,99371.97
2022-09-05T13:58:05.165Z,99366.38
2022-09-05T14:01:06.346Z,99354.19
2022-09-05T14:03:57.861Z,99356.97
2022-09-05T14:06:48.883Z,99355.28
2022-09-05T14:09:37.325Z,99349.94
2022-09-05T14:12:13.594Z,99349.88
2022-09-05T14:17:52.623Z,99344.53
2022-09-05T14:20:42.919Z,99343.75
2022-09-05T14:23:15.449Z,99344.94
2022-09-05T14:25:52.759Z,99345.06
2022-09-05T14:28:27.095Z,99346.63
2022-09-05T14:32:13.125Z,99335.66
2022-09-05T14:37:42.127Z,99346.91
2022-09-05T14:37:54.600Z,99340.72
2022-09-05T14:40:32.287Z,99332.75
2022-09-05T14:43:30.875Z,99329.28
2022-09-05T14:46:17.680Z,99327.34
2022-09-05T14:49:05.505Z,99327.84
2022-09-05T14:51:46.746Z,99320.66
2022-09-05T15:02:20.634Z,99320.81
2022-09-05T15:02:42.571Z,99320.34
2022-09-05T15:03:05.066Z,99318.41
2022-09-05T15:05:41.110Z,99325.75
2022-09-05T15:09:28.634Z,99318.81
2022-09-05T15:12:21.503Z,99319.06
2022-09-05T15:13:58.069Z,99317.75
2022-09-05T15:16:27.359Z,99322.16
2022-09-05T15:18:56.350Z,99312.81
2022-09-05T15:21:33.986Z,99312.50
2022-09-05T15:24:14.802Z,99314.25
2022-09-05T15:26:53.787Z,99322.28
2022-09-05T15:29:24.905Z,99322.72
2022-09-05T15:32:09.094Z,99321.06
2022-09-05T15:34:39.050Z,99310.56
2022-09-05T15:37:23.913Z,99309.63
2022-09-05T15:40:07.657Z,99302.63
2022-09-05T15:42:55.315Z,99306.41
2022-09-05T15:45:27.829Z,99298.31
2022-09-05T15:48:08.664Z,99305.75
2022-09-05T15:50:43.665Z,99304.41
2022-09-05T15:53:14.423Z,99294.84
2022-09-05T15:55:50.395Z,99295.13
2022-09-05T15:58:52.502Z,99284.56
2022-09-05T16:01:30.485Z,99289.59
2022-09-05T16:08:10.629Z,99284.72
2022-09-05T16:10:35.908Z,99280.28
2022-09-05T16:10:59.096Z,99289.44
2022-09-05T16:12:44.974Z,99287.41
2022-09-05T16:16:12.307Z,99279.44
2022-09-05T16:23:25.287Z,99286.72
2022-09-05T16:23:27.979Z,99287.38
2022-09-05T16:24:04.133Z,99278.00
2022-09-05T16:26:39.752Z,99273.00
2022-09-05T16:29:19.478Z,99264.69
2022-09-05T16:31:58.266Z,99265.81
2022-09-05T16:34:32.231Z,99268.53
2022-09-05T16:37:08.805Z,99262.91
2022-09-05T16:39:44.376Z,99257.72
2022-09-05T16:42:18.769Z,99263.38
2022-09-05T16:44:52.598Z,99262.38
2022-09-05T16:47:32.594Z,99266.13
2022-09-05T16:50:19.150Z,99267.69
2022-09-05T16:53:28.380Z,99258.06
2022-09-05T16:55:58.500Z,99256.31
2022-09-05T16:58:32.183Z,99262.69
2022-09-05T17:01:14.221Z,99248.34
2022-09-05T17:03:58.600Z,99238.06
2022-09-05T17:06:37.340Z,99251.34
2022-09-05T17:09:13.775Z,99251.88
2022-09-05T17:12:00.342Z,99245.22
2022-09-05T17:14:35.555Z,99240.69
2022-09-05T17:17:38.893Z,99247.72
2022-09-05T17:20:07.318Z,99248.00
2022-09-05T17:25:05.436Z,99248.81
2022-09-05T17:29:32.183Z,99244.97
2022-09-05T17:29:33.949Z,99239.97
2022-09-05T17:35:17.284Z,99242.56
2022-09-05T17:38:15.929Z,99241.88
2022-09-05T17:41:16.233Z,99238.84
2022-09-05T17:43:46.258Z,99237.84
2022-09-05T17:46:20.121Z,99243.00
2022-09-05T17:49:18.255Z,99244.28
2022-09-05T17:52:17.474Z,99238.97
2022-09-05T17:54:50.229Z,99229.94
2022-09-05T17:57:41.365Z,99237.03
2022-09-05T18:00:59.885Z,99233.78
2022-09-05T18:04:16.166Z,99235.31
2022-09-05T18:07:00.744Z,99243.88
2022-09-05T18:09:58.904Z,99242.28
2022-09-05T18:15:59.910Z,99245.78
2022-09-05T18:19:28.842Z,99241.19
2022-09-05T18:21:24.723Z,99244.75
2022-09-05T18:23:59.357Z,99254.44
2022-09-05T18:26:29.157Z,99253.69
2022-09-05T18:29:05.981Z,99252.16
2022-09-05T18:32:03.080Z,99255.59
2022-09-05T18:34:46.027Z,99249.13
2022-09-05T18:37:51.263Z,99258.91
2022-09-05T18:40:47.417Z,99258.97
2022-09-05T18:43:28.402Z,99253.00
2022-09-05T18:46:08.112Z,99261.81
2022-09-05T18:48:57.191Z,99256.91
2022-09-05T18:51:47.838Z,99260.47
2022-09-05T18:54:20.357Z,99261.53
2022-09-05T18:57:27.293Z,99262.81
2022-09-05T18:59:49.347Z,99264.06
2022-09-05T19:02:41.161Z,99266.38
2022-09-05T19:05:28.516Z,99276.41
2022-09-05T19:07:59.489Z,99286.72
2022-09-05T19:10:35.000Z,99275.38
2022-09-05T19:13:11.507Z,99271.72
2022-09-05T19:15:48.432Z,99271.44
2022-09-05T19:18:25.835Z,99266.38
2022-09-05T19:21:12.328Z,99257.88
2022-09-05T19:23:46.569Z,99265.59
2022-09-05T19:26:14.784Z,99268.16
2022-09-05T19:36:49.226Z,99264.00
2022-09-05T19:36:56.453Z,99269.66
2022-09-05T19:37:15.104Z,99265.69
2022-09-05T19:37:30.485Z,99264.44
2022-09-05T19:42:05.984Z,99255.75
2022-09-05T19:47:37.696Z,99260.16
2022-09-05T19:47:41.867Z,99257.13
2022-09-05T19:48:35.080Z,99256.16
2022-09-05T19:51:16.527Z,99260.63
2022-09-05T19:53:47.583Z,99252.69
2022-09-05T19:56:22.970Z,99252.50
2022-09-05T19:58:51.473Z,99253.69
2022-09-05T20:01:23.028Z,99258.78
2022-09-05T20:03:53.741Z,99245.38
2022-09-05T20:06:30.301Z,99247.78
2022-09-05T20:09:10.594Z,99246.91
2022-09-05T20:11:46.379Z,99242.44
2022-09-05T20:14:20.798Z,99247.00
2022-09-05T20:16:49.746Z,99243.13
2022-09-05T20:19:28.616Z,99242.63
2022-09-05T20:22:12.800Z,99246.16
2022-09-05T20:24:49.245Z,99247.25
2022-09-05T20:27:17.688Z,99236.56
2022-09-05T20:29:55.780Z,99243.84
2022-09-05T20:32:38.916Z,99241.00
2022-09-05T20:37:37.477Z,99241.41
2022-09-05T20:43:09.123Z,99241.22
2022-09-05T20:43:27.683Z,99235.81
2022-09-05T20:43:57.915Z,99233.75
2022-09-05T20:54:09.538Z,99244.00
2022-09-05T20:54:20.156Z,99234.03
2022-09-05T20:54:23.437Z,99238.66
2022-09-05T20:55:39.434Z,99230.53
2022-09-05T20:58:12.126Z,99217.97
2022-09-05T21:01:15.417Z,99228.03
2022-09-05T21:03:36.705Z,99228.00
2022-09-05T21:06:12.759Z,99226.75
2022-09-05T21:08:40.892Z,99228.66
2022-09-05T21:11:10.106Z,99219.38
2022-09-05T21:13:52.510Z,99220.06
2022-09-05T21:16:23.411Z,99218.06
2022-09-05T21:18:52.320Z,99223.16
2022-09-05T21:21:29.728Z,99224.13
2022-09-05T21:24:16.379Z,99234.56
2022-09-05T21:26:49.776Z,99236.97
2022-09-05T21:29:27.366Z,99240.41
2022-09-05T21:32:01.990Z,99242.94
2022-09-05T21:34:32.741Z,99245.38
2022-09-05T21:37:07.583Z,99248.78
2022-09-05T21:39:46.696Z,99242.00
2022-09-05T21:44:29.499Z,99251.16
2022-09-05T21:47:45.067Z,99245.94
2022-09-05T21:48:07.633Z,99245.22
2022-09-05T21:50:40.842Z,99251.00
2022-09-05T21:54:42.628Z,99251.28
2022-09-05T21:59:20.586Z,99254.13
2022-09-05T21:59:25.702Z,99243.59
2022-09-05T22:01:52.243Z,99245.03
2022-09-05T22:04:22.004Z,99243.91
2022-09-05T22:06:50.469Z,99234.75
2022-09-05T22:09:19.719Z,99242.16
2022-09-05T22:11:50.627Z,99240.41
2022-09-05T22:14:21.433Z,99244.78
2022-09-05T22:16:50.419Z,99244.34
2022-09-05T22:19:36.840Z,99242.63
2022-09-05T22:22:15.627Z,99231.38
2022-09-05T22:24:47.984Z,99224.63
2022-09-05T22:27:20.069Z,99228.50
2022-09-05T22:29:50.807Z,99232.69
2022-09-05T22:32:33.822Z,99237.38
2022-09-05T22:35:28.014Z,99223.66
2022-09-05T22:38:00.160Z,99220.94
2022-09-05T22:40:29.581Z,99217.53
2022-09-05T22:42:58.484Z,99212.47
2022-09-05T22:45:28.951Z,99212.50
2022-09-05T22:47:56.855Z,99211.66
2022-09-05T22:50:26.023Z,99209.78
2022-09-05T22:52:54.074Z,99206.59
2022-09-05T22:55:21.881Z,99218.25
2022-09-05T22:57:49.772Z,99206.88
2022-09-05T23:00:17.777Z,99199.91
2022-09-05T23:02:51.635Z,99195.59
2022-09-05T23:05:20.174Z,99204.28
2022-09-05T23:07:48.036Z,99211.66
2022-09-05T23:10:16.136Z,99207.22
2022-09-05T23:12:44.002Z,99198.78
2022-09-05T23:15:12.273Z,99203.06
2022-09-05T23:17:40.109Z,99196.78
2022-09-05T23:20:10.883Z,99194.22
2022-09-05T23:22:39.201Z,99203.41
2022-09-05T23:25:08.043Z,99198.25
2022-09-05T23:27:36.656Z,99191.00
2022-09-05T23:30:06.015Z,99188.94
2022-09-05T23:32:34.440Z,99187.81
2022-09-05T23:35:02.771Z,99197.53
2022-09-05T23:37:31.923Z,99186.78
2022-09-05T23:40:00.566Z,99183.16
2022-09-05T23:42:28.631Z,99181.16
2022-09-05T23:44:56.476Z,99182.53
2022-09-05T23:47:24.342Z,99189.25
2022-09-05T23:49:52.128Z,99187.97
2022-09-05T23:52:20.042Z,99191.78
2022-09-05T23:54:49.191Z,99189.56
2022-09-05T23:57:23.368Z,99182.81
2022-09-05T23:59:52.725Z,99195.06
